sensor_id;sensor_type;location;lat;lon;timestamp;pressure;altitude;pressure_sealevel;temperature;humidity
51526;BME280;37611;51.794;21.590;2023-09-19T00:03:38;99402.44;;;18.26;100.00
51526;BME280;37611;51.794;21.590;2023-09-19T00:07:40;99402.43;;;18.23;100.00
51526;BME280;37611;51.794;21.590;2023-09-19T00:11:41;99397.98;;;18.17;100.00
51526;BME280;37611;51.794;21.590;2023-09-19T00:15:45;99402.40;;;18.12;100.00
51526;BME280;37611;51.794;21.590;2023-09-19T00:19:50;99403.52;;;18.09;100.00
51526;BME280;37611;51.794;21.590;2023-09-19T00:23:54;99399.04;;;18.06;100.00
51526;BME280;37611;51.794;21.590;2023-09-19T00:27:56;99398.48;;;18.04;100.00
51526;BME280;37611;51.794;21.590;2023-09-19T00:31:59;99394.77;;;17.98;100.00
51526;BME280;37611;51.794;21.590;2023-09-19T00:36:02;99395.32;;;17.95;100.00
51526;BME280;37611;51.794;21.590;2023-09-19T00:40:08;99393.40;;;17.93;100.00
51526;BME280;37611;51.794;21.590;2023-09-19T00:44:13;99390.88;;;17.90;100.00
51526;BME280;37611;51.794;21.590;2023-09-19T00:48:17;99382.98;;;17.89;100.00
51526;BME280;37611;51.794;21.590;2023-09-19T00:52:20;99376.40;;;17.85;100.00
51526;BME280;37611;51.794;21.590;2023-09-19T00:56:23;99368.78;;;17.83;100.00
51526;BME280;37611;51.794;21.590;2023-09-19T01:00:25;99370.38;;;17.82;100.00
51526;BME280;37611;51.794;21.590;2023-09-19T01:04:27;99366.09;;;17.81;100.00
51526;BME280;37611;51.794;21.590;2023-09-19T01:08:29;99362.48;;;17.78;100.00
51526;BME280;37611;51.794;21.590;2023-09-19T01:17:29;99351.13;;;17.74;100.00
51526;BME280;37611;51.794;21.590;2023-09-19T01:26:06;99343.73;;;17.70;100.00
51526;BME280;37611;51.794;21.590;2023-09-19T01:30:13;99340.03;;;17.69;100.00
51526;BME280;37611;51.794;21.590;2023-09-19T01:34:15;99334.16;;;17.67;100.00
51526;BME280;37611;51.794;21.590;2023-09-19T01:38:17;99329.44;;;17.65;100.00
51526;BME280;37611;51.794;21.590;2023-09-19T01:46:50;99322.98;;;17.62;100.00
51526;BME280;37611;51.794;21.590;2023-09-19T01:51:05;99315.72;;;17.61;100.00
51526;BME280;37611;51.794;21.590;2023-09-19T01:55:09;99314.52;;;17.59;100.00
51526;BME280;37611;51.794;21.590;2023-09-19T01:59:14;99313.35;;;17.57;100.00
51526;BME280;37611;51.794;21.590;2023-09-19T02:03:20;99309.97;;;17.56;100.00
51526;BME280;37611;51.794;21.590;2023-09-19T02:07:23;99307.80;;;17.56;100.00
51526;BME280;37611;51.794;21.590;2023-09-19T02:11:25;99307.27;;;17.53;100.00
51526;BME280;37611;51.794;21.590;2023-09-19T02:15:27;99301.78;;;17.51;100.00
51526;BME280;37611;51.794;21.590;2023-09-19T02:19:29;99306.76;;;17.51;100.00
51526;BME280;37611;51.794;21.590;2023-09-19T02:23:33;99305.33;;;17.47;100.00
51526;BME280;37611;51.794;21.590;2023-09-19T02:27:34;99305.14;;;17.44;100.00
51526;BME280;37611;51.794;21.590;2023-09-19T02:31:37;99304.23;;;17.42;100.00
51526;BME280;37611;51.794;21.590;2023-09-19T02:35:39;99301.08;;;17.41;100.00
51526;BME280;37611;51.794;21.590;2023-09-19T02:39:40;99295.45;;;17.39;100.00
51526;BME280;37611;51.794;21.590;2023-09-19T02:43:42;99291.77;;;17.38;100.00
51526;BME280;37611;51.794;21.590;2023-09-19T02:47:45;99290.15;;;17.37;100.00
51526;BME280;37611;51.794;21.590;2023-09-19T02:51:47;99279.73;;;17.35;100.00
51526;BME280;37611;51.794;21.590;2023-09-19T02:55:48;99280.27;;;17.35;100.00
51526;BME280;37611;51.794;21.590;2023-09-19T02:59:50;99277.30;;;17.32;100.00
51526;BME280;37611;51.794;21.590;2023-09-19T03:03:53;99275.04;;;17.31;100.00
51526;BME280;37611;51.794;21.590;2023-09-19T03:07:55;99265.48;;;17.32;100.00
51526;BME280;37611;51.794;21.590;2023-09-19T03:11:57;99263.35;;;17.32;100.00
51526;BME280;37611;51.794;21.590;2023-09-19T03:15:58;99263.10;;;17.33;100.00
51526;BME280;37611;51.794;21.590;2023-09-19T03:20:00;99263.68;;;17.35;100.00
51526;BME280;37611;51.794;21.590;2023-09-19T03:24:02;99261.69;;;17.36;100.00
51526;BME280;37611;51.794;21.590;2023-09-19T03:28:05;99257.16;;;17.40;100.00
51526;BME280;37611;51.794;21.590;2023-09-19T03:32:09;99248.98;;;17.43;100.00
51526;BME280;37611;51.794;21.590;2023-09-19T03:36:12;99248.70;;;17.48;100.00
51526;BME280;37611;51.794;21.590;2023-09-19T03:40:15;99249.88;;;17.52;100.00
51526;BME280;37611;51.794;21.590;2023-09-19T03:44:17;99248.05;;;17.58;100.00
51526;BME280;37611;51.794;21.590;2023-09-19T03:48:19;99248.22;;;17.63;100.00
51526;BME280;37611;51.794;21.590;2023-09-19T03:52:21;99245.77;;;17.67;100.00
51526;BME280;37611;51.794;21.590;2023-09-19T03:56:23;99232.30;;;17.70;100.00
51526;BME280;37611;51.794;21.590;2023-09-19T04:00:25;99222.59;;;17.74;100.00
51526;BME280;37611;51.794;21.590;2023-09-19T04:04:27;99217.35;;;17.79;100.00
51526;BME280;37611;51.794;21.590;2023-09-19T04:08:31;99221.48;;;17.83;100.00
51526;BME280;37611;51.794;21.590;2023-09-19T04:12:33;99220.55;;;17.86;100.00
51526;BME280;37611;51.794;21.590;2023-09-19T04:16:34;99218.68;;;17.89;100.00
51526;BME280;37611;51.794;21.590;2023-09-19T04:20:36;99213.61;;;17.91;100.00
51526;BME280;37611;51.794;21.590;2023-09-19T04:24:38;99207.90;;;17.93;100.00
51526;BME280;37611;51.794;21.590;2023-09-19T04:28:40;99200.79;;;17.93;100.00
51526;BME280;37611;51.794;21.590;2023-09-19T04:32:42;99197.67;;;17.94;100.00
51526;BME280;37611;51.794;21.590;2023-09-19T04:36:44;99197.70;;;17.94;100.00
51526;BME280;37611;51.794;21.590;2023-09-19T04:40:46;99200.00;;;17.94;100.00
51526;BME280;37611;51.794;21.590;2023-09-19T04:44:48;99200.16;;;17.94;100.00
51526;BME280;37611;51.794;21.590;2023-09-19T04:48:51;99194.15;;;17.95;100.00
51526;BME280;37611;51.794;21.590;2023-09-19T04:52:52;99190.89;;;17.95;100.00
51526;BME280;37611;51.794;21.590;2023-09-19T04:56:55;99182.91;;;17.96;100.00
51526;BME280;37611;51.794;21.590;2023-09-19T05:00:57;99182.60;;;17.96;100.00
51526;BME280;37611;51.794;21.590;2023-09-19T05:04:59;99183.55;;;17.96;100.00
51526;BME280;37611;51.794;21.590;2023-09-19T05:09:02;99186.50;;;17.99;100.00
51526;BME280;37611;51.794;21.590;2023-09-19T05:13:07;99187.37;;;18.06;100.00
51526;BME280;37611;51.794;21.590;2023-09-19T05:17:09;99181.06;;;18.12;100.00
51526;BME280;37611;51.794;21.590;2023-09-19T05:21:11;99179.39;;;18.19;100.00
51526;BME280;37611;51.794;21.590;2023-09-19T05:25:13;99179.69;;;18.27;100.00
51526;BME280;37611;51.794;21.590;2023-09-19T05:29:18;99169.25;;;18.32;100.00
51526;BME280;37611;51.794;21.590;2023-09-19T05:33:20;99170.67;;;18.40;100.00
51526;BME280;37611;51.794;21.590;2023-09-19T05:37:22;99166.48;;;18.51;100.00
51526;BME280;37611;51.794;21.590;2023-09-19T05:41:24;99163.48;;;18.56;100.00
51526;BME280;37611;51.794;21.590;2023-09-19T05:45:26;99165.09;;;18.59;100.00
51526;BME280;37611;51.794;21.590;2023-09-19T05:49:29;99165.16;;;18.61;100.00
51526;BME280;37611;51.794;21.590;2023-09-19T05:53:30;99166.61;;;18.68;100.00
51526;BME280;37611;51.794;21.590;2023-09-19T05:57:33;99163.63;;;18.71;100.00
51526;BME280;37611;51.794;21.590;2023-09-19T06:01:35;99166.66;;;18.74;100.00
51526;BME280;37611;51.794;21.590;2023-09-19T06:05:37;99160.36;;;18.74;100.00
51526;BME280;37611;51.794;21.590;2023-09-19T06:09:42;99164.09;;;18.74;100.00
51526;BME280;37611;51.794;21.590;2023-09-19T06:13:44;99166.52;;;18.72;100.00
51526;BME280;37611;51.794;21.590;2023-09-19T06:17:50;99162.92;;;18.72;100.00
51526;BME280;37611;51.794;21.590;2023-09-19T06:21:52;99170.02;;;18.75;100.00
51526;BME280;37611;51.794;21.590;2023-09-19T06:25:57;99177.77;;;18.78;100.00
51526;BME280;37611;51.794;21.590;2023-09-19T06:29:59;99185.16;;;18.80;100.00
51526;BME280;37611;51.794;21.590;2023-09-19T06:34:01;99184.69;;;18.78;100.00
51526;BME280;37611;51.794;21.590;2023-09-19T06:38:04;99180.20;;;18.81;100.00
51526;BME280;37611;51.794;21.590;2023-09-19T06:42:07;99170.64;;;18.84;100.00
51526;BME280;37611;51.794;21.590;2023-09-19T06:46:10;99168.03;;;18.88;100.00
51526;BME280;37611;51.794;21.590;2023-09-19T06:50:14;99165.84;;;19.00;100.00
51526;BME280;37611;51.794;21.590;2023-09-19T06:54:15;99166.88;;;19.10;100.00
51526;BME280;37611;51.794;21.590;2023-09-19T06:58:19;99173.89;;;19.13;100.00
51526;BME280;37611;51.794;21.590;2023-09-19T07:02:22;99183.80;;;19.18;100.00
51526;BME280;37611;51.794;21.590;2023-09-19T07:06:23;99190.45;;;19.22;100.00
51526;BME280;37611;51.794;21.590;2023-09-19T07:10:26;99198.08;;;19.27;100.00
51526;BME280;37611;51.794;21.590;2023-09-19T07:14:28;99198.73;;;19.25;100.00
51526;BME280;37611;51.794;21.590;2023-09-19T07:18:31;99195.23;;;19.26;100.00
51526;BME280;37611;51.794;21.590;2023-09-19T07:22:33;99198.91;;;19.22;100.00
51526;BME280;37611;51.794;21.590;2023-09-19T07:26:35;99201.15;;;19.22;100.00
51526;BME280;37611;51.794;21.590;2023-09-19T07:30:38;99205.88;;;19.24;100.00
51526;BME280;37611;51.794;21.590;2023-09-19T07:34:41;99209.65;;;19.32;100.00
51526;BME280;37611;51.794;21.590;2023-09-19T07:38:42;99217.16;;;19.47;100.00
51526;BME280;37611;51.794;21.590;2023-09-19T07:42:44;99218.49;;;19.62;100.00
51526;BME280;37611;51.794;21.590;2023-09-19T07:46:48;99217.98;;;19.76;100.00
51526;BME280;37611;51.794;21.590;2023-09-19T07:50:52;99216.94;;;19.88;100.00
51526;BME280;37611;51.794;21.590;2023-09-19T07:54:55;99218.34;;;19.96;100.00
51526;BME280;37611;51.794;21.590;2023-09-19T07:58:58;99219.38;;;20.02;100.00
51526;BME280;37611;51.794;21.590;2023-09-19T08:03:01;99222.27;;;20.06;100.00
51526;BME280;37611;51.794;21.590;2023-09-19T08:07:04;99223.84;;;20.08;100.00
51526;BME280;37611;51.794;21.590;2023-09-19T08:11:07;99222.02;;;20.05;100.00
51526;BME280;37611;51.794;21.590;2023-09-19T08:15:22;99229.23;;;20.04;100.00
51526;BME280;37611;51.794;21.590;2023-09-19T08:19:25;99226.88;;;20.05;100.00
51526;BME280;37611;51.794;21.590;2023-09-19T08:23:29;99228.96;;;20.05;100.00
51526;BME280;37611;51.794;21.590;2023-09-19T08:27:34;99228.73;;;20.02;100.00
51526;BME280;37611;51.794;21.590;2023-09-19T08:31:37;99233.17;;;19.96;100.00
51526;BME280;37611;51.794;21.590;2023-09-19T08:35:39;99233.81;;;19.93;100.00
51526;BME280;37611;51.794;21.590;2023-09-19T08:39:42;99233.36;;;19.98;100.00
51526;BME280;37611;51.794;21.590;2023-09-19T08:43:45;99236.54;;;20.06;100.00
51526;BME280;37611;51.794;21.590;2023-09-19T08:48:22;99231.41;;;20.15;100.00
51526;BME280;37611;51.794;21.590;2023-09-19T08:52:28;99233.83;;;20.22;100.00
51526;BME280;37611;51.794;21.590;2023-09-19T08:56:35;99236.66;;;20.28;100.00
51526;BME280;37611;51.794;21.590;2023-09-19T09:00:41;99235.86;;;20.34;100.00
51526;BME280;37611;51.794;21.590;2023-09-19T09:04:46;99240.59;;;20.36;100.00
51526;BME280;37611;51.794;21.590;2023-09-19T09:08:52;99238.29;;;20.38;100.00
51526;BME280;37611;51.794;21.590;2023-09-19T09:12:54;99239.45;;;20.39;100.00
51526;BME280;37611;51.794;21.590;2023-09-19T09:16:59;99241.88;;;20.43;100.00
51526;BME280;37611;51.794;21.590;2023-09-19T09:21:01;99247.67;;;20.45;100.00
51526;BME280;37611;51.794;21.590;2023-09-19T09:25:03;99257.66;;;20.46;100.00
51526;BME280;37611;51.794;21.590;2023-09-19T09:29:06;99257.54;;;20.42;100.00
51526;BME280;37611;51.794;21.590;2023-09-19T09:33:09;99261.44;;;20.37;100.00
51526;BME280;37611;51.794;21.590;2023-09-19T09:37:14;99267.66;;;20.34;100.00
51526;BME280;37611;51.794;21.590;2023-09-19T09:41:17;99270.14;;;20.35;100.00
51526;BME280;37611;51.794;21.590;2023-09-19T09:45:29;99266.24;;;20.37;100.00
51526;BME280;37611;51.794;21.590;2023-09-19T09:49:37;99267.05;;;20.36;100.00
51526;BME280;37611;51.794;21.590;2023-09-19T09:53:40;99268.80;;;20.35;100.00
51526;BME280;37611;51.794;21.590;2023-09-19T09:57:42;99272.19;;;20.33;100.00
51526;BME280;37611;51.794;21.590;2023-09-19T10:01:47;99277.96;;;20.34;100.00
51526;BME280;37611;51.794;21.590;2023-09-19T10:05:53;99282.64;;;20.36;100.00
51526;BME280;37611;51.794;21.590;2023-09-19T10:09:57;99284.70;;;20.35;100.00
51526;BME280;37611;51.794;21.590;2023-09-19T10:14:06;99286.75;;;20.31;100.00
51526;BME280;37611;51.794;21.590;2023-09-19T10:18:12;99288.91;;;20.25;100.00
51526;BME280;37611;51.794;21.590;2023-09-19T10:22:19;99292.45;;;20.19;100.00
51526;BME280;37611;51.794;21.590;2023-09-19T10:26:24;99289.40;;;20.14;100.00
51526;BME280;37611;51.794;21.590;2023-09-19T10:30:27;99289.83;;;20.12;100.00
51526;BME280;37611;51.794;21.590;2023-09-19T10:34:30;99291.36;;;20.17;100.00
51526;BME280;37611;51.794;21.590;2023-09-19T10:38:35;99291.87;;;20.20;100.00
51526;BME280;37611;51.794;21.590;2023-09-19T10:42:38;99291.45;;;20.15;100.00
51526;BME280;37611;51.794;21.590;2023-09-19T10:46:43;99298.39;;;20.17;100.00
51526;BME280;37611;51.794;21.590;2023-09-19T10:51:15;99298.92;;;20.22;100.00
51526;BME280;37611;51.794;21.590;2023-09-19T10:55:16;99305.08;;;20.25;100.00
51526;BME280;37611;51.794;21.590;2023-09-19T10:59:23;99307.95;;;20.27;100.00
51526;BME280;37611;51.794;21.590;2023-09-19T11:03:25;99309.29;;;20.28;100.00
51526;BME280;37611;51.794;21.590;2023-09-19T11:07:58;99308.60;;;20.28;100.00
51526;BME280;37611;51.794;21.590;2023-09-19T11:12:05;99304.45;;;20.26;100.00
51526;BME280;37611;51.794;21.590;2023-09-19T11:16:07;99305.91;;;20.24;100.00
51526;BME280;37611;51.794;21.590;2023-09-19T11:49:47;99306.73;;;20.20;100.00
51526;BME280;37611;51.794;21.590;2023-09-19T11:53:51;99309.45;;;20.16;100.00
51526;BME280;37611;51.794;21.590;2023-09-19T11:57:55;99307.54;;;20.14;100.00
51526;BME280;37611;51.794;21.590;2023-09-19T12:02:04;99308.20;;;20.10;100.00
51526;BME280;37611;51.794;21.590;2023-09-19T12:06:14;99306.08;;;20.10;100.00
51526;BME280;37611;51.794;21.590;2023-09-19T12:10:16;99309.15;;;20.05;100.00
51526;BME280;37611;51.794;21.590;2023-09-19T12:14:23;99308.06;;;20.01;100.00
51526;BME280;37611;51.794;21.590;2023-09-19T12:18:30;99310.52;;;19.94;100.00
51526;BME280;37611;51.794;21.590;2023-09-19T12:22:42;99317.20;;;19.86;100.00
51526;BME280;37611;51.794;21.590;2023-09-19T12:26:46;99322.77;;;19.80;100.00
51526;BME280;37611;51.794;21.590;2023-09-19T12:30:53;99329.93;;;19.72;100.00
51526;BME280;37611;51.794;21.590;2023-09-19T12:34:59;99334.73;;;19.62;100.00
51526;BME280;37611;51.794;21.590;2023-09-19T12:39:01;99338.05;;;19.53;100.00
51526;BME280;37611;51.794;21.590;2023-09-19T12:43:10;99339.70;;;19.45;100.00
51526;BME280;37611;51.794;21.590;2023-09-19T12:47:17;99337.44;;;19.40;100.00
51526;BME280;37611;51.794;21.590;2023-09-19T12:51:34;99343.77;;;19.32;100.00
51526;BME280;37611;51.794;21.590;2023-09-19T12:55:36;99353.30;;;19.22;100.00
51526;BME280;37611;51.794;21.590;2023-09-19T12:59:39;99354.27;;;19.19;100.00
51526;BME280;37611;51.794;21.590;2023-09-19T13:03:41;99356.85;;;19.18;100.00
51526;BME280;37611;51.794;21.590;2023-09-19T13:07:44;99356.79;;;19.14;100.00
51526;BME280;37611;51.794;21.590;2023-09-19T13:11:50;99363.09;;;19.10;100.00
51526;BME280;37611;51.794;21.590;2023-09-19T13:15:55;99363.65;;;19.04;100.00
51526;BME280;37611;51.794;21.590;2023-09-19T13:19:59;99365.67;;;18.97;100.00
51526;BME280;37611;51.794;21.590;2023-09-19T13:24:24;99366.84;;;18.95;100.00
51526;BME280;37611;51.794;21.590;2023-09-19T13:28:30;99368.09;;;18.90;100.00
51526;BME280;37611;51.794;21.590;2023-09-19T13:32:32;99369.82;;;18.89;100.00
51526;BME280;37611;51.794;21.590;2023-09-19T13:36:34;99371.73;;;18.89;100.00
51526;BME280;37611;51.794;21.590;2023-09-19T13:40:38;99374.84;;;18.90;100.00
51526;BME280;37611;51.794;21.590;2023-09-19T13:44:41;99375.66;;;18.85;100.00
51526;BME280;37611;51.794;21.590;2023-09-19T13:48:42;99373.37;;;18.85;100.00
51526;BME280;37611;51.794;21.590;2023-09-19T13:52:44;99374.27;;;18.86;100.00
51526;BME280;37611;51.794;21.590;2023-09-19T13:56:46;99375.34;;;18.91;100.00
51526;BME280;37611;51.794;21.590;2023-09-19T14:00:48;99374.66;;;18.94;100.00
51526;BME280;37611;51.794;21.590;2023-09-19T14:04:53;99383.02;;;18.98;100.00
51526;BME280;37611;51.794;21.590;2023-09-19T14:08:56;99383.89;;;19.00;100.00
51526;BME280;37611;51.794;21.590;2023-09-19T14:13:04;99388.64;;;19.03;100.00
51526;BME280;37611;51.794;21.590;2023-09-19T14:17:06;99385.42;;;19.04;100.00
51526;BME280;37611;51.794;21.590;2023-09-19T14:21:08;99386.45;;;19.06;100.00
51526;BME280;37611;51.794;21.590;2023-09-19T14:25:13;99386.67;;;19.08;100.00
51526;BME280;37611;51.794;21.590;2023-09-19T14:29:15;99393.02;;;19.08;100.00
51526;BME280;37611;51.794;21.590;2023-09-19T14:33:17;99398.42;;;19.08;100.00
51526;BME280;37611;51.794;21.590;2023-09-19T14:37:19;99401.88;;;19.06;100.00
51526;BME280;37611;51.794;21.590;2023-09-19T14:41:23;99403.14;;;19.08;100.00
51526;BME280;37611;51.794;21.590;2023-09-19T14:45:27;99406.88;;;19.09;100.00
51526;BME280;37611;51.794;21.590;2023-09-19T14:49:29;99410.01;;;19.09;100.00
51526;BME280;37611;51.794;21.590;2023-09-19T14:53:31;99406.35;;;19.14;100.00
51526;BME280;37611;51.794;21.590;2023-09-19T14:57:33;99406.77;;;19.15;100.00
51526;BME280;37611;51.794;21.590;2023-09-19T15:01:36;99410.89;;;19.18;100.00
51526;BME280;37611;51.794;21.590;2023-09-19T15:05:40;99409.55;;;19.17;100.00
51526;BME280;37611;51.794;21.590;2023-09-19T15:09:41;99411.70;;;19.15;100.00
51526;BME280;37611;51.794;21.590;2023-09-19T15:13:44;99411.27;;;19.15;100.00
51526;BME280;37611;51.794;21.590;2023-09-19T15:17:46;99415.02;;;19.15;100.00
51526;BME280;37611;51.794;21.590;2023-09-19T15:21:48;99416.04;;;19.15;100.00
51526;BME280;37611;51.794;21.590;2023-09-19T15:25:50;99416.63;;;19.17;100.00
51526;BME280;37611;51.794;21.590;2023-09-19T15:29:52;99418.25;;;19.18;100.00
51526;BME280;37611;51.794;21.590;2023-09-19T15:33:54;99419.41;;;19.18;100.00
51526;BME280;37611;51.794;21.590;2023-09-19T15:37:56;99418.48;;;19.17;100.00
51526;BME280;37611;51.794;21.590;2023-09-19T15:41:59;99428.34;;;19.17;100.00
51526;BME280;37611;51.794;21.590;2023-09-19T15:46:01;99428.91;;;19.18;100.00
51526;BME280;37611;51.794;21.590;2023-09-19T15:50:03;99435.73;;;19.17;100.00
51526;BME280;37611;51.794;21.590;2023-09-19T15:54:14;99432.16;;;19.17;100.00
51526;BME280;37611;51.794;21.590;2023-09-19T15:58:16;99433.24;;;19.18;100.00
51526;BME280;37611;51.794;21.590;2023-09-19T16:02:19;99434.21;;;19.16;100.00
51526;BME280;37611;51.794;21.590;2023-09-19T16:06:29;99439.45;;;19.13;100.00
51526;BME280;37611;51.794;21.590;2023-09-19T16:10:34;99436.08;;;19.12;100.00
51526;BME280;37611;51.794;21.590;2023-09-19T16:14:37;99443.63;;;19.05;100.00
51526;BME280;37611;51.794;21.590;2023-09-19T16:18:39;99449.68;;;19.02;100.00
51526;BME280;37611;51.794;21.590;2023-09-19T16:22:41;99450.92;;;19.01;100.00
51526;BME280;37611;51.794;21.590;2023-09-19T16:26:43;99450.70;;;18.95;100.00
51526;BME280;37611;51.794;21.590;2023-09-19T16:30:45;99448.98;;;18.84;100.00
51526;BME280;37611;51.794;21.590;2023-09-19T16:34:47;99446.68;;;18.77;100.00
51526;BME280;37611;51.794;21.590;2023-09-19T16:38:49;99456.30;;;18.73;100.00
51526;BME280;37611;51.794;21.590;2023-09-19T16:42:53;99461.42;;;18.71;100.00
51526;BME280;37611;51.794;21.590;2023-09-19T16:46:55;99468.39;;;18.68;100.00
51526;BME280;37611;51.794;21.590;2023-09-19T16:51:02;99465.86;;;18.67;100.00
51526;BME280;37611;51.794;21.590;2023-09-19T16:55:05;99469.65;;;18.64;100.00
51526;BME280;37611;51.794;21.590;2023-09-19T16:59:07;99476.14;;;18.61;100.00
51526;BME280;37611;51.794;21.590;2023-09-19T17:03:11;99483.49;;;18.57;100.00
51526;BME280;37611;51.794;21.590;2023-09-19T17:07:14;99493.38;;;18.54;100.00
51526;BME280;37611;51.794;21.590;2023-09-19T17:11:16;99494.83;;;18.52;100.00
51526;BME280;37611;51.794;21.590;2023-09-19T17:15:19;99495.42;;;18.50;100.00
51526;BME280;37611;51.794;21.590;2023-09-19T17:19:21;99493.64;;;18.47;100.00
51526;BME280;37611;51.794;21.590;2023-09-19T17:23:28;99498.46;;;18.47;100.00
51526;BME280;37611;51.794;21.590;2023-09-19T17:27:30;99505.64;;;18.45;100.00
51526;BME280;37611;51.794;21.590;2023-09-19T17:31:32;99506.36;;;18.41;100.00
51526;BME280;37611;51.794;21.590;2023-09-19T17:35:34;99508.88;;;18.39;100.00
51526;BME280;37611;51.794;21.590;2023-09-19T17:39:36;99512.41;;;18.36;100.00
51526;BME280;37611;51.794;21.590;2023-09-19T17:43:37;99521.30;;;18.34;100.00
51526;BME280;37611;51.794;21.590;2023-09-19T17:47:43;99526.17;;;18.32;100.00
51526;BME280;37611;51.794;21.590;2023-09-19T17:51:45;99530.17;;;18.28;100.00
51526;BME280;37611;51.794;21.590;2023-09-19T17:55:46;99537.30;;;18.27;100.00
51526;BME280;37611;51.794;21.590;2023-09-19T17:59:50;99536.86;;;18.25;100.00
51526;BME280;37611;51.794;21.590;2023-09-19T18:03:53;99539.90;;;18.22;100.00
51526;BME280;37611;51.794;21.590;2023-09-19T18:07:58;99541.66;;;18.19;100.00
51526;BME280;37611;51.794;21.590;2023-09-19T18:12:00;99550.96;;;18.16;100.00
51526;BME280;37611;51.794;21.590;2023-09-19T18:16:06;99554.88;;;18.12;100.00
51526;BME280;37611;51.794;21.590;2023-09-19T18:20:09;99555.23;;;18.08;100.00
51526;BME280;37611;51.794;21.590;2023-09-19T18:24:12;99563.34;;;18.06;100.00
51526;BME280;37611;51.794;21.590;2023-09-19T18:28:15;99567.30;;;18.03;100.00
51526;BME280;37611;51.794;21.590;2023-09-19T18:32:19;99572.64;;;17.99;100.00
51526;BME280;37611;51.794;21.590;2023-09-19T18:36:20;99575.15;;;17.96;100.00
51526;BME280;37611;51.794;21.590;2023-09-19T18:40:23;99574.70;;;17.92;100.00
51526;BME280;37611;51.794;21.590;2023-09-19T18:44:25;99579.98;;;17.88;100.00
51526;BME280;37611;51.794;21.590;2023-09-19T18:48:27;99589.09;;;17.84;100.00
51526;BME280;37611;51.794;21.590;2023-09-19T18:52:29;99594.01;;;17.82;100.00
51526;BME280;37611;51.794;21.590;2023-09-19T18:56:30;99594.55;;;17.78;100.00
51526;BME280;37611;51.794;21.590;2023-09-19T19:00:32;99597.20;;;17.75;100.00
51526;BME280;37611;51.794;21.590;2023-09-19T19:04:34;99602.73;;;17.72;100.00
51526;BME280;37611;51.794;21.590;2023-09-19T19:08:41;99603.05;;;17.69;100.00
51526;BME280;37611;51.794;21.590;2023-09-19T19:12:44;99606.11;;;17.66;100.00
51526;BME280;37611;51.794;21.590;2023-09-19T19:16:46;99612.81;;;17.64;100.00
51526;BME280;37611;51.794;21.590;2023-09-19T19:20:57;99610.20;;;17.60;100.00
51526;BME280;37611;51.794;21.590;2023-09-19T19:24:58;99614.50;;;17.54;100.00
51526;BME280;37611;51.794;21.590;2023-09-19T19:29:00;99617.95;;;17.47;100.00
51526;BME280;37611;51.794;21.590;2023-09-19T19:33:02;99617.58;;;17.43;100.00
51526;BME280;37611;51.794;21.590;2023-09-19T19:37:04;99621.14;;;17.39;100.00
51526;BME280;37611;51.794;21.590;2023-09-19T19:41:07;99617.50;;;17.32;100.00
51526;BME280;37611;51.794;21.590;2023-09-19T19:45:10;99624.04;;;17.24;100.00
51526;BME280;37611;51.794;21.590;2023-09-19T19:49:12;99627.52;;;17.18;100.00
51526;BME280;37611;51.794;21.590;2023-09-19T19:53:13;99629.96;;;17.14;100.00
51526;BME280;37611;51.794;21.590;2023-09-19T19:57:15;99632.41;;;17.09;100.00
51526;BME280;37611;51.794;21.590;2023-09-19T20:01:18;99634.81;;;17.03;100.00
51526;BME280;37611;51.794;21.590;2023-09-19T20:05:21;99637.66;;;16.98;100.00
51526;BME280;37611;51.794;21.590;2023-09-19T20:09:23;99635.29;;;16.94;100.00
51526;BME280;37611;51.794;21.590;2023-09-19T20:13:25;99642.03;;;16.90;100.00
51526;BME280;37611;51.794;21.590;2023-09-19T20:17:28;99646.75;;;16.87;100.00
51526;BME280;37611;51.794;21.590;2023-09-19T20:21:31;99652.02;;;16.84;100.00
51526;BME280;37611;51.794;21.590;2023-09-19T20:25:34;99654.00;;;16.78;100.00
51526;BME280;37611;51.794;21.590;2023-09-19T20:29:35;99658.02;;;16.75;100.00
51526;BME280;37611;51.794;21.590;2023-09-19T20:33:40;99654.64;;;16.66;100.00
51526;BME280;37611;51.794;21.590;2023-09-19T20:37:42;99659.23;;;16.59;100.00
51526;BME280;37611;51.794;21.590;2023-09-19T20:41:45;99662.95;;;16.54;100.00
51526;BME280;37611;51.794;21.590;2023-09-19T20:45:47;99663.70;;;16.47;100.00
51526;BME280;37611;51.794;21.590;2023-09-19T20:49:49;99664.90;;;16.38;100.00
51526;BME280;37611;51.794;21.590;2023-09-19T20:53:52;99667.06;;;16.27;100.00
51526;BME280;37611;51.794;21.590;2023-09-19T20:57:55;99677.25;;;16.11;100.00
51526;BME280;37611;51.794;21.590;2023-09-19T21:01:57;99675.41;;;16.02;100.00
51526;BME280;37611;51.794;21.590;2023-09-19T21:06:05;99677.81;;;15.95;100.00
51526;BME280;37611;51.794;21.590;2023-09-19T21:10:08;99681.27;;;15.88;100.00
51526;BME280;37611;51.794;21.590;2023-09-19T21:14:10;99687.65;;;15.83;100.00
51526;BME280;37611;51.794;21.590;2023-09-19T21:18:12;99684.92;;;15.73;100.00
51526;BME280;37611;51.794;21.590;2023-09-19T21:22:14;99691.84;;;15.67;100.00
51526;BME280;37611;51.794;21.590;2023-09-19T21:26:16;99694.89;;;15.59;100.00
51526;BME280;37611;51.794;21.590;2023-09-19T21:30:18;99692.07;;;15.53;100.00
51526;BME280;37611;51.794;21.590;2023-09-19T21:34:21;99693.48;;;15.46;100.00
51526;BME280;37611;51.794;21.590;2023-09-19T21:38:23;99691.34;;;15.37;100.00
51526;BME280;37611;51.794;21.590;2023-09-19T21:42:26;99691.16;;;15.32;100.00